createdAt,value
2022-08-17T00:01:40.002Z,11.90
2022-08-17T00:04:19.537Z,7.40
2022-08-17T00:06:49.029Z,11.80
2022-08-17T00:09:18.780Z,13.98
2022-08-17T00:12:34.743Z,9.50
2022-08-17T00:14:36.584Z,15.40
2022-08-17T00:17:07.117Z,9.70
2022-08-17T00:19:34.268Z,11.60
2022-08-17T00:22:33.616Z,9.43
2022-08-17T00:24:50.418Z,8.90
2022-08-17T00:27:17.975Z,8.85
2022-08-17T00:29:46.019Z,7.55
2022-08-17T00:33:14.905Z,10.73
2022-08-17T00:35:08.074Z,7.57
2022-08-17T00:37:35.091Z,5.75
2022-08-17T00:40:02.187Z,9.13
2022-08-17T00:42:31.281Z,8.55
2022-08-17T00:44:59.069Z,9.68
2022-08-17T00:47:26.663Z,7.00
2022-08-17T00:49:54.191Z,13.35
2022-08-17T00:52:25.486Z,8.57
2022-08-17T00:54:55.448Z,13.52
2022-08-17T00:57:30.019Z,13.90
2022-08-17T01:00:12.405Z,9.85
2022-08-17T01:02:43.340Z,7.35
2022-08-17T01:05:31.544Z,13.40
2022-08-17T01:08:00.832Z,13.53
2022-08-17T01:10:58.555Z,7.30
2022-08-17T01:13:24.877Z,16.55
2022-08-17T01:16:15.990Z,13.18
2022-08-17T01:18:48.197Z,20.77
2022-08-17T01:21:40.970Z,10.70
2022-08-17T01:24:09.657Z,6.68
2022-08-17T01:26:42.096Z,9.40
2022-08-17T01:29:09.968Z,8.00
2022-08-17T01:31:42.625Z,7.22
2022-08-17T01:34:11.394Z,14.15
2022-08-17T01:36:42.446Z,6.50
2022-08-17T01:39:14.893Z,10.73
2022-08-17T01:41:42.295Z,11.45
2022-08-17T01:44:10.665Z,7.22
2022-08-17T01:46:38.634Z,8.70
2022-08-17T01:49:11.149Z,11.18
2022-08-17T01:51:39.081Z,9.20
2022-08-17T01:54:12.723Z,9.10
2022-08-17T01:56:44.218Z,13.02
2022-08-17T01:59:15.352Z,13.10
2022-08-17T02:01:43.683Z,9.18
2022-08-17T02:04:11.372Z,9.25
2022-08-17T02:06:45.207Z,13.48
2022-08-17T02:09:25.397Z,11.30
2022-08-17T02:11:54.804Z,8.10
2022-08-17T02:14:24.560Z,11.25
2022-08-17T02:16:52.431Z,9.70
2022-08-17T02:19:19.610Z,13.43
2022-08-17T02:21:49.291Z,9.50
2022-08-17T02:25:00.888Z,11.30
2022-08-17T02:27:10.540Z,10.18
2022-08-17T02:29:38.416Z,10.48
2022-08-17T02:32:05.788Z,13.93
2022-08-17T02:34:33.360Z,8.15
2022-08-17T02:37:00.406Z,9.35
2022-08-17T02:39:27.393Z,10.82
2022-08-17T02:42:02.269Z,12.43
2022-08-17T02:44:38.891Z,12.77
2022-08-17T02:47:07.833Z,9.27
2022-08-17T02:49:34.865Z,12.35
2022-08-17T02:52:04.627Z,14.43
2022-08-17T02:54:39.864Z,8.45
2022-08-17T02:57:08.013Z,6.90
2022-08-17T02:59:34.944Z,9.07
2022-08-17T03:02:04.190Z,11.07
2022-08-17T03:04:31.799Z,16.00
2022-08-17T03:07:02.983Z,13.32
2022-08-17T03:09:30.367Z,11.13
2022-08-17T03:12:12.979Z,9.27
2022-08-17T03:14:41.976Z,10.98
2022-08-17T03:17:10.152Z,13.27
2022-08-17T03:19:37.703Z,12.10
2022-08-17T03:22:35.679Z,12.68
2022-08-17T03:24:58.078Z,12.93
2022-08-17T03:27:24.997Z,20.33
2022-08-17T03:29:51.884Z,13.25
2022-08-17T03:32:20.814Z,18.42
2022-08-17T03:34:48.084Z,10.60
2022-08-17T03:37:15.120Z,17.30
2022-08-17T03:39:43.051Z,14.02
2022-08-17T03:42:32.343Z,13.43
2022-08-17T03:45:01.616Z,11.20
2022-08-17T03:47:47.006Z,10.10
2022-08-17T03:50:33.668Z,10.07
2022-08-17T03:53:21.325Z,11.75
2022-08-17T03:56:06.934Z,11.13
2022-08-17T03:58:34.048Z,12.45
2022-08-17T04:01:01.437Z,8.32
2022-08-17T04:03:28.915Z,9.25
2022-08-17T04:05:56.014Z,13.90
2022-08-17T04:08:23.088Z,8.50
2022-08-17T04:10:50.298Z,10.57
2022-08-17T04:13:24.868Z,12.95
2022-08-17T04:15:53.460Z,9.75
2022-08-17T04:18:20.483Z,9.60
2022-08-17T04:20:47.458Z,12.38
2022-08-17T04:23:19.568Z,9.90
2022-08-17T04:25:50.000Z,9.07
2022-08-17T04:28:18.902Z,10.93
2022-08-17T04:30:47.428Z,11.52
2022-08-17T04:33:24.126Z,13.45
2022-08-17T04:36:02.420Z,15.15
2022-08-17T04:38:32.037Z,13.07
2022-08-17T04:41:18.543Z,9.82
2022-08-17T04:43:47.185Z,12.27
2022-08-17T04:46:19.429Z,8.50
2022-08-17T04:48:52.765Z,10.30
2022-08-17T04:51:38.638Z,9.52
2022-08-17T04:54:18.141Z,23.33
2022-08-17T04:56:45.684Z,13.65
2022-08-17T04:59:20.267Z,10.73
2022-08-17T05:01:51.635Z,14.65
2022-08-17T05:04:34.811Z,17.95
2022-08-17T05:07:04.796Z,8.27
2022-08-17T05:12:02.471Z,10.13
2022-08-17T05:14:33.377Z,14.93
2022-08-17T05:17:01.490Z,12.48
2022-08-17T05:19:31.565Z,9.07
2022-08-17T05:21:59.748Z,16.70
2022-08-17T05:24:38.599Z,8.90
2022-08-17T05:27:10.739Z,14.68
2022-08-17T05:29:44.744Z,7.47
2022-08-17T05:32:39.173Z,11.55
2022-08-17T05:35:00.835Z,8.77
2022-08-17T05:37:28.178Z,13.50
2022-08-17T05:39:55.304Z,15.65
2022-08-17T05:42:22.708Z,16.40
2022-08-17T05:44:49.681Z,9.82
2022-08-17T05:47:18.354Z,9.85
2022-08-17T05:49:49.199Z,12.65
2022-08-17T05:52:37.519Z,14.73
2022-08-17T05:55:04.558Z,15.55
2022-08-17T05:57:53.341Z,16.05
2022-08-17T06:00:30.390Z,8.60
2022-08-17T06:03:21.878Z,12.35
2022-08-17T06:06:06.906Z,22.52
2022-08-17T06:09:22.938Z,11.32
2022-08-17T06:12:19.928Z,5.40
2022-08-17T06:15:07.456Z,15.98
2022-08-17T06:17:35.493Z,12.55
2022-08-17T06:20:10.380Z,10.93
2022-08-17T06:22:47.840Z,8.25
2022-08-17T06:25:23.611Z,8.98
2022-08-17T06:28:14.009Z,6.45
2022-08-17T06:30:59.759Z,14.30
2022-08-17T06:33:35.497Z,10.80
2022-08-17T06:36:15.927Z,10.35
2022-08-17T06:38:58.192Z,8.55
2022-08-17T06:41:43.022Z,7.10
2022-08-17T06:44:50.194Z,13.02
2022-08-17T06:47:28.321Z,7.97
2022-08-17T06:50:22.405Z,17.42
2022-08-17T06:53:12.797Z,8.57
2022-08-17T06:55:49.368Z,9.32
2022-08-17T06:58:22.330Z,5.75
2022-08-17T07:00:58.538Z,7.30
2022-08-17T07:03:38.793Z,5.72
2022-08-17T07:06:13.366Z,7.20
2022-08-17T07:08:58.046Z,6.38
2022-08-17T07:11:36.781Z,6.28
2022-08-17T07:14:24.599Z,15.27
2022-08-17T07:16:55.447Z,8.52
2022-08-17T07:19:26.653Z,14.60
2022-08-17T07:22:14.493Z,8.48
2022-08-17T07:25:02.595Z,12.70
2022-08-17T07:27:35.514Z,10.60
2022-08-17T07:30:12.504Z,9.55
2022-08-17T07:32:42.417Z,10.70
2022-08-17T07:35:41.016Z,10.77
2022-08-17T07:38:25.240Z,7.53
2022-08-17T07:40:57.928Z,7.18
2022-08-17T07:43:31.850Z,8.65
2022-08-17T07:46:23.753Z,7.60
2022-08-17T07:48:54.511Z,7.20
2022-08-17T07:51:26.617Z,10.23
2022-08-17T07:54:14.141Z,12.25
2022-08-17T07:56:56.996Z,13.82
2022-08-17T07:59:36.889Z,8.73
2022-08-17T08:02:13.452Z,4.97
2022-08-17T08:05:02.042Z,8.55
2022-08-17T08:07:35.679Z,9.65
2022-08-17T08:10:13.066Z,7.03
2022-08-17T08:12:47.447Z,8.27
2022-08-17T08:15:15.395Z,8.27
2022-08-17T08:17:54.274Z,12.30
2022-08-17T08:20:53.903Z,10.43
2022-08-17T08:23:32.893Z,7.60
2022-08-17T08:26:17.943Z,14.13
2022-08-17T08:29:29.761Z,7.45
2022-08-17T08:32:19.514Z,9.38
2022-08-17T08:35:13.108Z,8.05
2022-08-17T08:38:10.901Z,6.32
2022-08-17T08:40:52.483Z,9.43
2022-08-17T08:43:50.843Z,11.00
2022-08-17T08:46:52.661Z,9.65
2022-08-17T08:50:03.368Z,7.22
2022-08-17T08:52:49.614Z,11.38
2022-08-17T08:55:35.691Z,9.77
2022-08-17T08:58:32.068Z,5.50
2022-08-17T09:01:09.211Z,7.75
2022-08-17T09:04:21.374Z,4.10
2022-08-17T09:07:10.590Z,5.80
2022-08-17T09:09:51.245Z,11.40
2022-08-17T09:12:41.048Z,7.60
2022-08-17T09:15:40.229Z,5.57
2022-08-17T09:21:08.052Z,7.35
2022-08-17T09:23:45.446Z,10.10
2022-08-17T09:26:25.573Z,8.52
2022-08-17T09:29:01.675Z,8.40
2022-08-17T09:31:46.467Z,9.30
2022-08-17T09:34:22.334Z,15.07
2022-08-17T09:37:20.415Z,7.25
2022-08-17T09:39:58.532Z,7.65
2022-08-17T09:42:47.006Z,10.30
2022-08-17T09:45:57.351Z,5.72
2022-08-17T09:48:57.698Z,4.35
2022-08-17T09:51:40.258Z,16.05
2022-08-17T09:54:42.520Z,8.68
2022-08-17T09:57:30.232Z,11.73
2022-08-17T10:00:19.024Z,10.48
2022-08-17T10:03:09.648Z,8.85
2022-08-17T10:05:46.793Z,9.95
2022-08-17T10:08:52.639Z,5.97
2022-08-17T10:11:59.807Z,10.32
2022-08-17T10:14:53.633Z,11.57
2022-08-17T10:17:38.061Z,10.10
2022-08-17T10:20:17.401Z,6.90
2022-08-17T10:23:09.004Z,7.97
2022-08-17T10:26:02.987Z,4.50
2022-08-17T10:28:37.006Z,9.55
2022-08-17T10:34:21.013Z,5.70
2022-08-17T10:37:13.055Z,8.13
2022-08-17T10:40:24.839Z,7.47
2022-08-17T10:43:15.457Z,6.50
2022-08-17T10:46:14.565Z,6.57
2022-08-17T10:49:16.927Z,9.65
2022-08-17T10:51:54.427Z,14.15
2022-08-17T10:54:36.425Z,4.45
2022-08-17T10:57:29.282Z,7.82
2022-08-17T11:00:03.559Z,9.50
2022-08-17T11:02:41.429Z,12.18
2022-08-17T11:05:38.961Z,13.80
2022-08-17T11:08:47.057Z,7.80
2022-08-17T11:11:35.943Z,12.95
2022-08-17T11:14:41.369Z,8.25
2022-08-17T11:17:17.343Z,12.02
2022-08-17T11:19:53.502Z,15.20
2022-08-17T11:23:26.863Z,8.18
2022-08-17T11:25:56.532Z,7.93
2022-08-17T11:28:35.336Z,14.70
2022-08-17T11:31:38.323Z,7.40
2022-08-17T11:34:27.021Z,8.98
2022-08-17T11:37:08.090Z,10.82
2022-08-17T11:39:54.427Z,7.28
2022-08-17T11:42:30.816Z,15.07
2022-08-17T11:45:32.285Z,8.35
2022-08-17T11:48:40.358Z,10.20
2022-08-17T11:51:46.719Z,9.40
2022-08-17T11:54:34.917Z,8.00
2022-08-17T11:57:25.905Z,7.63
2022-08-17T12:00:10.572Z,11.65
2022-08-17T12:02:47.084Z,6.18
2022-08-17T12:05:22.753Z,8.57
2022-08-17T12:08:18.512Z,8.07
2022-08-17T12:11:06.472Z,8.45
2022-08-17T12:13:50.711Z,14.60
2022-08-17T12:16:20.198Z,7.30
2022-08-17T12:18:59.022Z,8.10
2022-08-17T12:21:43.063Z,5.28
2022-08-17T12:24:50.577Z,8.63
2022-08-17T12:28:04.363Z,9.63
2022-08-17T12:30:21.632Z,12.85
2022-08-17T12:32:49.102Z,4.72
2022-08-17T12:35:48.230Z,8.35
2022-08-17T12:38:32.461Z,7.15
2022-08-17T12:41:22.483Z,6.10
2022-08-17T12:46:23.629Z,8.18
2022-08-17T12:48:58.971Z,4.30
2022-08-17T12:51:29.185Z,12.40
2022-08-17T12:53:56.759Z,4.05
2022-08-17T12:56:23.851Z,10.35
2022-08-17T12:58:56.625Z,11.48
2022-08-17T13:01:25.148Z,12.07
2022-08-17T13:03:55.207Z,9.52
2022-08-17T13:06:45.980Z,10.38
2022-08-17T13:09:35.644Z,10.02
2022-08-17T13:12:07.930Z,7.15
2022-08-17T13:14:35.469Z,6.20
2022-08-17T13:17:08.595Z,8.52
2022-08-17T13:19:49.656Z,12.23
2022-08-17T13:22:18.430Z,6.32
2022-08-17T13:24:57.791Z,6.95
2022-08-17T13:27:27.854Z,7.00
2022-08-17T13:29:59.623Z,7.72
2022-08-17T13:32:39.887Z,5.57
2022-08-17T13:35:40.047Z,4.18
2022-08-17T13:38:10.430Z,7.90
2022-08-17T13:40:55.322Z,11.45
2022-08-17T13:43:48.533Z,5.85
2022-08-17T13:46:24.961Z,8.63
2022-08-17T13:49:03.936Z,6.07
2022-08-17T13:51:41.697Z,8.02
2022-08-17T13:54:21.124Z,10.25
2022-08-17T13:56:57.663Z,10.23
2022-08-17T13:59:54.395Z,8.65
2022-08-17T14:02:27.916Z,4.57
2022-08-17T14:04:56.929Z,5.70
2022-08-17T14:07:31.504Z,8.52
2022-08-17T14:10:09.408Z,10.43
2022-08-17T14:12:39.697Z,13.07
2022-08-17T14:15:08.229Z,6.25
2022-08-17T14:17:38.884Z,7.63
2022-08-17T14:20:09.611Z,7.47
2022-08-17T14:22:39.432Z,9.80
2022-08-17T14:25:10.302Z,4.60
2022-08-17T14:27:51.852Z,6.10
2022-08-17T14:30:25.638Z,9.38
2022-08-17T14:32:54.895Z,11.30
2022-08-17T14:35:23.262Z,7.40
2022-08-17T14:37:51.399Z,8.07
2022-08-17T14:40:20.915Z,10.30
2022-08-17T14:42:48.381Z,5.78
2022-08-17T14:45:32.039Z,11.70
2022-08-17T14:48:01.239Z,10.98
2022-08-17T14:50:28.287Z,8.43
2022-08-17T14:52:59.295Z,5.43
2022-08-17T14:55:29.865Z,7.72
2022-08-17T14:57:57.045Z,6.30
2022-08-17T15:00:24.073Z,5.55
2022-08-17T15:02:58.584Z,10.02
2022-08-17T15:05:30.672Z,7.90
2022-08-17T15:07:58.896Z,17.45
2022-08-17T15:10:26.128Z,50.20
2022-08-17T15:12:54.530Z,8.45
2022-08-17T15:15:21.468Z,6.63
2022-08-17T15:17:48.470Z,7.03
2022-08-17T15:20:22.916Z,6.82
2022-08-17T15:22:51.015Z,7.70
2022-08-17T15:25:19.427Z,8.85
2022-08-17T15:27:47.527Z,13.47
2022-08-17T15:30:15.392Z,13.23
2022-08-17T15:32:51.434Z,7.88
2022-08-17T15:35:30.581Z,10.50
2022-08-17T15:38:03.519Z,12.15
2022-08-17T15:40:37.710Z,13.05
2022-08-17T15:43:27.257Z,6.25
2022-08-17T15:46:01.475Z,8.20
2022-08-17T15:48:42.996Z,12.20
2022-08-17T15:51:17.575Z,8.88
2022-08-17T15:53:50.611Z,6.70
2022-08-17T15:56:18.710Z,13.93
2022-08-17T15:58:47.777Z,14.27
2022-08-17T16:01:18.722Z,9.82
2022-08-17T16:04:04.377Z,10.73
2022-08-17T16:06:35.581Z,9.65
2022-08-17T16:09:02.675Z,8.27
2022-08-17T16:11:30.688Z,10.57
2022-08-17T16:13:57.889Z,10.82
2022-08-17T16:16:24.946Z,5.75
2022-08-17T16:18:58.309Z,10.38
2022-08-17T16:21:27.543Z,7.80
2022-08-17T16:24:13.717Z,16.17
2022-08-17T16:26:42.566Z,9.32
2022-08-17T16:29:09.793Z,12.70
2022-08-17T16:31:37.863Z,13.98
2022-08-17T16:34:17.114Z,9.40
2022-08-17T16:36:55.014Z,9.70
2022-08-17T16:39:26.932Z,8.27
2022-08-17T16:41:54.312Z,19.77
2022-08-17T16:44:22.084Z,9.80
2022-08-17T16:46:50.304Z,9.02
2022-08-17T16:49:36.009Z,10.60
2022-08-17T16:52:12.748Z,13.05
2022-08-17T16:54:43.971Z,8.27
2022-08-17T16:57:12.990Z,11.75
2022-08-17T16:59:43.617Z,14.52
2022-08-17T17:02:15.151Z,11.65
2022-08-17T17:05:24.501Z,6.88
2022-08-17T17:07:55.506Z,10.98
2022-08-17T17:10:40.144Z,9.68
2022-08-17T17:13:20.955Z,17.05
2022-08-17T17:16:13.142Z,11.10
2022-08-17T17:18:47.643Z,12.05
2022-08-17T17:21:19.919Z,10.23
2022-08-17T17:23:52.843Z,13.68
2022-08-17T17:26:44.453Z,10.77
2022-08-17T17:29:25.613Z,11.27
2022-08-17T17:32:09.574Z,11.70
2022-08-17T17:34:38.096Z,11.15
2022-08-17T17:37:14.880Z,7.73
2022-08-17T17:39:56.873Z,13.98
2022-08-17T17:42:31.509Z,11.15
2022-08-17T17:45:01.576Z,12.55
2022-08-17T17:47:29.769Z,15.25
2022-08-17T17:49:56.952Z,18.70
2022-08-17T17:52:48.067Z,27.23
2022-08-17T17:55:36.810Z,22.38
2022-08-17T17:58:19.758Z,20.73
2022-08-17T18:01:09.596Z,17.05
2022-08-17T18:03:59.137Z,12.88
2022-08-17T18:06:50.954Z,20.60
2022-08-17T18:09:36.541Z,22.88
2022-08-17T18:12:50.015Z,16.00
2022-08-17T18:15:51.831Z,22.73
2022-08-17T18:18:18.885Z,11.10
2022-08-17T18:20:56.128Z,10.95
2022-08-17T18:23:28.027Z,18.20
2022-08-17T18:25:57.128Z,16.27
2022-08-17T18:28:35.802Z,19.05
2022-08-17T18:31:20.677Z,28.05
2022-08-17T18:33:52.513Z,19.58
2022-08-17T18:36:36.459Z,25.95
2022-08-17T18:39:11.913Z,17.70
2022-08-17T18:41:48.425Z,15.85
2022-08-17T18:44:29.621Z,17.83
2022-08-17T18:47:18.073Z,28.65
2022-08-17T18:49:57.532Z,30.73
2022-08-17T18:55:15.907Z,17.98
2022-08-17T18:57:49.498Z,26.05
2022-08-17T19:00:41.109Z,22.75
2022-08-17T19:03:17.877Z,26.80
2022-08-17T19:05:54.932Z,31.30
2022-08-17T19:08:30.813Z,36.90
2022-08-17T19:11:21.547Z,29.77
2022-08-17T19:14:01.034Z,13.50
2022-08-17T19:16:50.009Z,23.30
2022-08-17T19:19:48.113Z,19.38
2022-08-17T19:22:28.914Z,19.48
2022-08-17T19:25:09.697Z,21.95
2022-08-17T19:27:46.316Z,16.67
2022-08-17T19:32:44.060Z,11.75
2022-08-17T19:35:17.369Z,13.60
2022-08-17T19:38:12.986Z,20.05
2022-08-17T19:40:54.568Z,19.77
2022-08-17T19:43:25.169Z,23.00
2022-08-17T19:46:26.225Z,18.52
2022-08-17T19:49:14.665Z,23.75
2022-08-17T19:51:44.778Z,23.67
2022-08-17T19:54:15.072Z,25.63
2022-08-17T19:57:01.747Z,28.42
2022-08-17T19:59:36.030Z,27.40
2022-08-17T20:02:22.117Z,32.65
2022-08-17T20:04:53.224Z,21.15
2022-08-17T20:07:22.773Z,20.83
2022-08-17T20:12:24.107Z,18.75
2022-08-17T20:14:57.276Z,21.15
2022-08-17T20:17:37.333Z,26.13
2022-08-17T20:20:21.588Z,26.88
2022-08-17T20:23:11.951Z,22.75
2022-08-17T20:25:39.293Z,20.02
2022-08-17T20:28:24.050Z,23.17
2022-08-17T20:30:51.581Z,24.60
2022-08-17T20:33:32.648Z,26.75
2022-08-17T20:36:14.467Z,33.60
2022-08-17T20:39:02.032Z,17.92
2022-08-17T20:41:31.083Z,27.90
2022-08-17T20:43:58.805Z,22.60
2022-08-17T20:46:37.999Z,23.58
2022-08-17T20:49:26.065Z,22.60
2022-08-17T20:52:38.534Z,19.67
2022-08-17T20:55:05.945Z,32.70
2022-08-17T20:57:32.846Z,27.83
2022-08-17T21:00:15.335Z,20.23
2022-08-17T21:02:46.540Z,22.95
2022-08-17T21:05:40.486Z,18.73
2022-08-17T21:08:15.707Z,18.95
2022-08-17T21:10:45.662Z,21.90
2022-08-17T21:13:14.003Z,15.23
2022-08-17T21:15:44.126Z,28.88
2022-08-17T21:18:28.573Z,18.83
2022-08-17T21:21:17.792Z,23.58
2022-08-17T21:24:09.176Z,24.48
2022-08-17T21:27:21.893Z,19.88
2022-08-17T21:29:53.593Z,21.58
2022-08-17T21:32:30.131Z,15.80
2022-08-17T21:35:28.646Z,17.70
2022-08-17T21:38:05.034Z,23.20
2022-08-17T21:40:33.877Z,18.83
2022-08-17T21:43:16.436Z,17.30
2022-08-17T21:45:44.114Z,16.23
2022-08-17T21:48:20.761Z,13.80
2022-08-17T21:51:06.851Z,25.20
2022-08-17T21:53:56.512Z,21.98
2022-08-17T21:56:31.809Z,18.67
2022-08-17T21:59:06.528Z,24.10
2022-08-17T22:01:40.570Z,17.77
2022-08-17T22:04:32.314Z,18.08
2022-08-17T22:07:02.193Z,16.85
2022-08-17T22:09:32.647Z,21.35
2022-08-17T22:12:29.990Z,16.33
2022-08-17T22:15:04.462Z,23.58
2022-08-17T22:17:46.301Z,14.98
2022-08-17T22:20:20.032Z,14.32
2022-08-17T22:23:08.728Z,17.63
2022-08-17T22:25:56.567Z,22.73
2022-08-17T22:29:02.048Z,18.65
2022-08-17T22:31:51.054Z,16.02
2022-08-17T22:34:18.256Z,13.80
2022-08-17T22:36:46.015Z,16.88
2022-08-17T22:39:13.492Z,18.55
2022-08-17T22:42:00.888Z,21.17
2022-08-17T22:44:37.874Z,23.63
2022-08-17T22:47:27.575Z,23.98
2022-08-17T22:50:12.082Z,13.73
2022-08-17T22:53:02.764Z,13.50
2022-08-17T22:55:52.644Z,20.67
2022-08-17T22:58:42.197Z,14.60
2022-08-17T23:03:57.978Z,13.48
2022-08-17T23:06:25.478Z,18.00
2022-08-17T23:08:57.836Z,14.80
2022-08-17T23:11:48.928Z,16.38
2022-08-17T23:14:19.904Z,22.10
2022-08-17T23:16:48.821Z,16.73
2022-08-17T23:19:19.532Z,14.38
2022-08-17T23:21:47.393Z,19.10
2022-08-17T23:24:24.357Z,15.90
2022-08-17T23:26:51.697Z,17.95
2022-08-17T23:29:21.387Z,19.08
2022-08-17T23:31:49.315Z,19.55
2022-08-17T23:34:18.528Z,20.65
2022-08-17T23:36:53.172Z,11.70
2022-08-17T23:39:27.535Z,14.60
2022-08-17T23:41:57.664Z,13.93
2022-08-17T23:44:24.878Z,17.17
2022-08-17T23:46:52.805Z,12.90
2022-08-17T23:49:20.585Z,15.23
2022-08-17T23:51:48.851Z,21.10
2022-08-17T23:54:33.699Z,18.17
2022-08-17T23:57:02.521Z,21.77
2022-08-17T23:59:29.547Z,16.07
